createdAt,value
2023-05-09T00:00:49.696Z,70.32
2023-05-09T00:03:16.061Z,69.64
2023-05-09T00:05:42.443Z,69.89
2023-05-09T00:08:09.043Z,69.52
2023-05-09T00:10:35.363Z,69.59
2023-05-09T00:13:01.797Z,70.02
2023-05-09T00:15:28.291Z,70.33
2023-05-09T00:17:54.735Z,69.86
2023-05-09T00:20:21.688Z,70.05
2023-05-09T00:22:48.064Z,69.93
2023-05-09T00:25:14.598Z,69.62
2023-05-09T00:27:41.160Z,69.74
2023-05-09T00:30:08.183Z,70.17
2023-05-09T00:32:34.666Z,70.19
2023-05-09T00:35:01.016Z,70.05
2023-05-09T00:37:29.074Z,70.15
2023-05-09T00:39:55.383Z,70.02
2023-05-09T00:42:21.689Z,70.12
2023-05-09T00:44:48.014Z,70.10
2023-05-09T00:47:14.406Z,70.39
2023-05-09T00:49:40.730Z,70.33
2023-05-09T00:52:07.038Z,69.73
2023-05-09T00:54:33.403Z,69.06
2023-05-09T00:56:59.732Z,68.56
2023-05-09T00:59:27.760Z,68.41
2023-05-09T01:01:54.116Z,68.16
2023-05-09T01:04:20.531Z,68.18
2023-05-09T01:07:30.153Z,68.43
2023-05-09T01:10:07.709Z,68.22
2023-05-09T01:12:58.772Z,67.90
2023-05-09T01:15:50.455Z,67.60
2023-05-09T01:18:30.192Z,67.85
2023-05-09T01:21:08.398Z,67.70
2023-05-09T01:24:13.521Z,67.66
2023-05-09T01:26:55.972Z,67.39
2023-05-09T01:29:45.468Z,66.90
2023-05-09T01:32:17.274Z,67.59
2023-05-09T01:34:45.492Z,67.78
2023-05-09T01:37:14.785Z,67.51
2023-05-09T01:39:44.780Z,67.80
2023-05-09T01:42:12.903Z,67.29
2023-05-09T01:44:41.164Z,67.35
2023-05-09T01:47:08.533Z,67.99
2023-05-09T01:49:40.192Z,67.94
2023-05-09T01:52:09.977Z,68.25
2023-05-09T01:54:37.774Z,68.40
2023-05-09T01:57:06.259Z,69.47
2023-05-09T01:59:33.887Z,70.12
2023-05-09T02:02:02.692Z,70.77
2023-05-09T02:04:30.872Z,71.26
2023-05-09T02:06:58.965Z,71.00
2023-05-09T02:09:25.837Z,70.38
2023-05-09T02:11:52.243Z,69.89
2023-05-09T02:14:18.542Z,69.84
2023-05-09T02:16:44.925Z,69.69
2023-05-09T02:19:11.396Z,69.80
2023-05-09T02:21:37.874Z,70.36
2023-05-09T02:24:04.583Z,70.55
2023-05-09T02:26:31.378Z,70.49
2023-05-09T02:28:58.829Z,70.81
2023-05-09T02:31:27.357Z,70.32
2023-05-09T02:33:54.714Z,70.49
2023-05-09T02:36:22.575Z,69.99
2023-05-09T02:38:49.028Z,69.88
2023-05-09T02:41:16.084Z,70.58
2023-05-09T02:43:42.936Z,70.21
2023-05-09T02:46:10.386Z,69.15
2023-05-09T02:48:36.895Z,68.42
2023-05-09T02:51:03.389Z,67.44
2023-05-09T02:53:29.758Z,68.26
2023-05-09T02:55:56.068Z,67.98
2023-05-09T02:58:22.380Z,68.37
2023-05-09T03:00:48.712Z,68.64
2023-05-09T03:03:15.191Z,68.90
2023-05-09T03:05:41.565Z,69.05
2023-05-09T03:08:07.912Z,69.42
2023-05-09T03:10:34.531Z,69.25
2023-05-09T03:13:01.271Z,68.45
2023-05-09T03:15:27.678Z,68.29
2023-05-09T03:17:54.081Z,68.12
2023-05-09T03:20:20.487Z,67.95
2023-05-09T03:22:46.807Z,67.61
2023-05-09T03:25:13.410Z,68.08
2023-05-09T03:27:39.901Z,67.92
2023-05-09T03:30:06.953Z,67.31
2023-05-09T03:32:33.396Z,67.10
2023-05-09T03:34:59.713Z,67.01
2023-05-09T03:37:27.224Z,66.97
2023-05-09T03:39:53.749Z,66.28
2023-05-09T03:42:20.045Z,66.41
2023-05-09T03:44:46.370Z,66.89
2023-05-09T03:47:12.694Z,65.94
2023-05-09T03:49:39.008Z,66.12
2023-05-09T03:52:05.505Z,65.50
2023-05-09T03:54:31.792Z,65.76
2023-05-09T03:56:58.093Z,65.56
2023-05-09T03:59:24.422Z,65.33
2023-05-09T04:01:50.854Z,65.48
2023-05-09T04:04:17.249Z,65.49
2023-05-09T04:06:43.564Z,65.09
2023-05-09T04:09:09.935Z,64.92
2023-05-09T04:11:36.264Z,64.76
2023-05-09T04:14:02.604Z,63.97
2023-05-09T04:16:30.125Z,64.88
2023-05-09T04:18:56.452Z,64.30
2023-05-09T04:21:22.775Z,64.04
2023-05-09T04:23:49.083Z,64.37
2023-05-09T04:26:15.403Z,64.35
2023-05-09T04:28:41.692Z,64.24
2023-05-09T04:31:08.096Z,63.69
2023-05-09T04:33:34.542Z,62.95
2023-05-09T04:36:00.907Z,62.71
2023-05-09T04:38:27.698Z,62.72
2023-05-09T04:40:54.056Z,63.33
2023-05-09T04:43:20.372Z,63.61
2023-05-09T04:45:46.803Z,64.04
2023-05-09T04:48:13.124Z,63.95
2023-05-09T04:50:40.953Z,63.15
2023-05-09T04:53:07.272Z,63.47
2023-05-09T04:55:33.607Z,63.71
2023-05-09T04:57:59.949Z,63.94
2023-05-09T05:00:26.248Z,63.03
2023-05-09T05:02:52.583Z,64.25
2023-05-09T05:05:24.528Z,64.12
2023-05-09T05:07:51.895Z,63.54
2023-05-09T05:10:18.240Z,64.00
2023-05-09T05:12:44.567Z,64.18
2023-05-09T05:15:11.576Z,64.40
2023-05-09T05:17:37.998Z,64.58
2023-05-09T05:20:04.827Z,64.27
2023-05-09T05:22:32.761Z,64.12
2023-05-09T05:24:59.213Z,64.12
2023-05-09T05:27:25.524Z,63.87
2023-05-09T05:29:51.828Z,63.86
2023-05-09T05:32:18.226Z,63.67
2023-05-09T05:34:44.532Z,63.69
2023-05-09T05:37:10.871Z,63.57
2023-05-09T05:39:37.162Z,63.66
2023-05-09T05:42:03.515Z,63.05
2023-05-09T05:44:29.840Z,61.97
2023-05-09T05:46:56.263Z,62.72
2023-05-09T05:49:22.587Z,62.22
2023-05-09T05:51:48.898Z,62.28
2023-05-09T05:54:15.193Z,61.79
2023-05-09T05:56:41.527Z,61.49
2023-05-09T05:59:07.950Z,60.73
2023-05-09T06:01:34.340Z,58.62
2023-05-09T06:04:00.686Z,57.54
2023-05-09T06:06:27.364Z,55.66
2023-05-09T06:08:53.753Z,55.37
2023-05-09T06:11:20.082Z,52.48
2023-05-09T06:13:46.399Z,48.75
2023-05-09T06:16:19.640Z,49.69
2023-05-09T06:18:47.455Z,50.77
2023-05-09T06:21:13.810Z,51.10
2023-05-09T06:23:47.265Z,51.22
2023-05-09T06:26:23.774Z,51.73
2023-05-09T06:28:50.151Z,51.31
2023-05-09T06:31:16.559Z,53.71
2023-05-09T06:33:42.924Z,54.65
2023-05-09T06:36:09.406Z,55.02
2023-05-09T06:38:35.701Z,54.43
2023-05-09T06:41:02.017Z,54.80
2023-05-09T06:43:28.347Z,53.62
2023-05-09T06:45:54.753Z,53.66
2023-05-09T06:48:21.083Z,54.74
2023-05-09T06:50:47.693Z,55.86
2023-05-09T06:53:14.112Z,55.18
2023-05-09T06:55:40.461Z,55.79
2023-05-09T06:58:06.760Z,57.16
2023-05-09T07:00:33.098Z,58.04
2023-05-09T07:02:59.425Z,58.34
2023-05-09T07:05:25.932Z,58.18
2023-05-09T07:07:52.519Z,59.13
2023-05-09T07:10:18.895Z,58.83
2023-05-09T07:12:45.194Z,58.67
2023-05-09T07:15:11.691Z,59.20
2023-05-09T07:17:38.042Z,58.64
2023-05-09T07:20:04.916Z,59.79
2023-05-09T07:22:32.676Z,59.62
2023-05-09T07:24:59.972Z,58.86
2023-05-09T07:27:26.335Z,58.98
2023-05-09T07:29:52.698Z,59.45
2023-05-09T07:32:19.559Z,58.85
2023-05-09T07:34:45.880Z,59.81
2023-05-09T07:37:13.664Z,59.54
2023-05-09T07:39:41.717Z,60.01
2023-05-09T07:42:08.058Z,59.36
2023-05-09T07:44:34.770Z,59.42
2023-05-09T07:47:01.232Z,58.94
2023-05-09T07:49:27.540Z,59.38
2023-05-09T07:51:53.849Z,58.81
2023-05-09T07:54:20.179Z,58.59
2023-05-09T07:56:46.495Z,59.76
2023-05-09T07:59:12.825Z,59.68
2023-05-09T08:01:39.228Z,60.46
2023-05-09T08:04:05.654Z,59.89
2023-05-09T08:06:32.705Z,59.04
2023-05-09T08:08:59.005Z,58.08
2023-05-09T08:11:25.334Z,57.73
2023-05-09T08:13:51.976Z,57.44
2023-05-09T08:16:18.277Z,55.68
2023-05-09T08:18:44.994Z,55.99
2023-05-09T08:21:11.705Z,54.43
2023-05-09T08:23:38.026Z,53.58
2023-05-09T08:26:04.376Z,55.52
2023-05-09T08:28:30.669Z,54.51
2023-05-09T08:30:57.092Z,56.28
2023-05-09T08:33:23.991Z,56.73
2023-05-09T08:35:51.583Z,57.11
2023-05-09T08:38:17.889Z,57.42
2023-05-09T08:40:44.245Z,57.08
2023-05-09T08:43:11.793Z,57.10
2023-05-09T08:45:51.723Z,57.96
2023-05-09T08:48:19.107Z,58.47
2023-05-09T08:50:45.515Z,58.77
2023-05-09T08:53:12.008Z,59.07
2023-05-09T08:55:38.749Z,58.46
2023-05-09T08:58:05.680Z,58.44
2023-05-09T09:00:33.554Z,57.07
2023-05-09T09:03:01.850Z,56.41
2023-05-09T09:08:01.698Z,54.47
2023-05-09T09:10:31.710Z,54.84
2023-05-09T09:12:59.520Z,54.97
2023-05-09T09:15:29.724Z,56.37
2023-05-09T09:18:01.087Z,55.76
2023-05-09T09:20:31.299Z,57.95
2023-05-09T09:22:59.867Z,58.40
2023-05-09T09:25:26.251Z,59.38
2023-05-09T09:27:52.557Z,59.97
2023-05-09T09:30:19.050Z,60.51
2023-05-09T09:32:45.395Z,61.32
2023-05-09T09:35:12.106Z,61.67
2023-05-09T09:37:40.565Z,61.58
2023-05-09T09:40:08.738Z,61.27
2023-05-09T09:42:48.490Z,62.16
2023-05-09T09:45:19.769Z,60.92
2023-05-09T09:47:48.320Z,59.92
2023-05-09T09:50:17.151Z,61.09
2023-05-09T09:52:54.659Z,61.33
2023-05-09T09:55:22.742Z,60.24
2023-05-09T09:57:49.037Z,58.56
2023-05-09T10:00:17.648Z,59.60
2023-05-09T10:03:02.418Z,59.15
2023-05-09T10:05:30.571Z,59.69
2023-05-09T10:07:58.941Z,59.91
2023-05-09T10:10:27.795Z,61.01
2023-05-09T10:12:58.968Z,58.82
2023-05-09T10:15:30.041Z,58.89
2023-05-09T10:18:00.904Z,59.37
2023-05-09T10:20:28.496Z,57.73
2023-05-09T10:22:58.687Z,57.74
2023-05-09T10:25:46.762Z,57.38
2023-05-09T10:28:22.450Z,53.99
2023-05-09T10:31:14.757Z,54.85
2023-05-09T10:33:48.919Z,55.81
2023-05-09T10:36:17.733Z,56.06
2023-05-09T10:38:44.988Z,54.32
2023-05-09T10:41:11.645Z,53.75
2023-05-09T10:43:38.167Z,53.24
2023-05-09T10:46:05.384Z,53.78
2023-05-09T10:48:33.174Z,52.90
2023-05-09T10:51:03.959Z,54.68
2023-05-09T10:53:49.910Z,52.51
2023-05-09T10:56:33.681Z,54.05
2023-05-09T10:59:00.417Z,54.36
2023-05-09T11:01:38.082Z,52.06
2023-05-09T11:04:16.409Z,52.59
2023-05-09T11:06:42.695Z,52.21
2023-05-09T11:09:28.635Z,53.60
2023-05-09T11:12:05.472Z,52.90
2023-05-09T11:14:37.529Z,50.52
2023-05-09T11:17:11.928Z,49.79
2023-05-09T11:19:47.302Z,52.23
2023-05-09T11:22:18.651Z,51.79
2023-05-09T11:24:46.049Z,51.95
2023-05-09T11:27:23.127Z,52.28
2023-05-09T11:29:57.473Z,53.36
2023-05-09T11:32:40.761Z,50.50
2023-05-09T11:35:09.104Z,51.85
2023-05-09T11:38:04.832Z,51.64
2023-05-09T11:40:32.269Z,52.30
2023-05-09T11:42:59.866Z,52.22
2023-05-09T11:45:28.933Z,51.09
2023-05-09T11:47:55.562Z,51.37
2023-05-09T11:50:21.884Z,52.53
2023-05-09T11:52:49.643Z,51.86
2023-05-09T11:55:18.340Z,52.36
2023-05-09T11:57:47.215Z,52.07
2023-05-09T12:00:23.187Z,51.91
2023-05-09T12:02:50.269Z,49.91
2023-05-09T12:05:18.258Z,50.89
2023-05-09T12:07:45.464Z,49.51
2023-05-09T12:10:14.373Z,49.04
2023-05-09T12:12:49.317Z,50.03
2023-05-09T12:15:17.024Z,49.71
2023-05-09T12:17:45.027Z,49.28
2023-05-09T12:20:11.868Z,49.32
2023-05-09T12:22:38.683Z,50.56
2023-05-09T12:25:09.683Z,51.99
2023-05-09T12:27:37.770Z,50.59
2023-05-09T12:30:08.351Z,51.17
2023-05-09T12:32:35.476Z,51.06
2023-05-09T12:35:02.206Z,51.27
2023-05-09T12:37:31.073Z,51.43
2023-05-09T12:40:10.040Z,49.95
2023-05-09T12:42:36.533Z,49.26
2023-05-09T12:45:03.637Z,51.69
2023-05-09T12:47:31.144Z,52.62
2023-05-09T12:49:59.019Z,52.66
2023-05-09T12:52:25.989Z,52.52
2023-05-09T12:54:53.494Z,51.62
2023-05-09T12:57:25.133Z,51.34
2023-05-09T12:59:51.471Z,51.27
2023-05-09T13:02:17.820Z,52.15
2023-05-09T13:04:44.177Z,51.68
2023-05-09T13:07:10.743Z,52.09
2023-05-09T13:09:54.875Z,52.62
2023-05-09T13:12:21.224Z,50.80
2023-05-09T13:14:47.608Z,49.49
2023-05-09T13:17:14.016Z,49.06
2023-05-09T13:19:40.348Z,48.72
2023-05-09T13:22:06.690Z,48.47
2023-05-09T13:24:33.016Z,48.43
2023-05-09T13:26:59.343Z,50.92
2023-05-09T13:29:25.697Z,50.35
2023-05-09T13:31:52.005Z,50.80
2023-05-09T13:34:18.344Z,50.67
2023-05-09T13:36:44.652Z,50.26
2023-05-09T13:39:10.974Z,51.01
2023-05-09T13:41:38.191Z,51.72
2023-05-09T13:44:04.760Z,50.60
2023-05-09T13:46:31.130Z,50.42
2023-05-09T13:48:57.440Z,51.05
2023-05-09T13:51:23.749Z,51.62
2023-05-09T13:53:50.045Z,50.50
2023-05-09T13:56:16.386Z,49.33
2023-05-09T13:58:42.686Z,48.84
2023-05-09T14:01:09.121Z,48.34
2023-05-09T14:03:35.499Z,48.07
2023-05-09T14:06:01.939Z,49.02
2023-05-09T14:08:28.256Z,49.77
2023-05-09T14:10:54.571Z,48.77
2023-05-09T14:13:20.936Z,51.43
2023-05-09T14:15:47.413Z,51.83
2023-05-09T14:18:17.731Z,49.98
2023-05-09T14:20:45.602Z,49.83
2023-05-09T14:23:11.912Z,49.36
2023-05-09T14:25:38.196Z,48.78
2023-05-09T14:28:04.880Z,48.49
2023-05-09T14:30:31.204Z,48.69
2023-05-09T14:32:57.551Z,48.00
2023-05-09T14:35:23.964Z,47.48
2023-05-09T14:37:50.323Z,47.91
2023-05-09T14:40:16.904Z,47.60
2023-05-09T14:42:43.415Z,48.58
2023-05-09T14:45:09.964Z,48.55
2023-05-09T14:47:36.265Z,50.02
2023-05-09T14:50:02.686Z,49.45
2023-05-09T14:52:28.979Z,51.37
2023-05-09T14:54:55.570Z,50.89
2023-05-09T14:57:21.881Z,48.85
2023-05-09T14:59:48.176Z,49.32
2023-05-09T15:02:14.487Z,50.52
2023-05-09T15:04:40.817Z,50.79
2023-05-09T15:07:07.110Z,50.72
2023-05-09T15:09:33.438Z,50.65
2023-05-09T15:11:59.761Z,51.06
2023-05-09T15:14:26.112Z,50.71
2023-05-09T15:16:52.504Z,50.91
2023-05-09T15:19:19.153Z,50.20
2023-05-09T15:21:45.560Z,51.57
2023-05-09T15:24:11.854Z,51.70
2023-05-09T15:26:38.308Z,51.57
2023-05-09T15:29:04.597Z,51.55
2023-05-09T15:31:32.792Z,52.26
2023-05-09T15:33:59.663Z,51.35
2023-05-09T15:36:27.854Z,51.97
2023-05-09T15:38:54.131Z,52.16
2023-05-09T15:41:20.466Z,53.00
2023-05-09T15:43:46.760Z,53.55
2023-05-09T15:46:13.118Z,54.99
2023-05-09T15:48:39.422Z,54.01
2023-05-09T15:51:05.832Z,53.53
2023-05-09T15:53:32.140Z,53.43
2023-05-09T15:55:58.453Z,53.20
2023-05-09T15:58:24.944Z,53.67
2023-05-09T16:00:51.378Z,54.35
2023-05-09T16:03:18.335Z,54.10
2023-05-09T16:05:44.937Z,54.02
2023-05-09T16:08:11.244Z,54.81
2023-05-09T16:10:37.640Z,54.46
2023-05-09T16:13:04.000Z,55.39
2023-05-09T16:15:30.419Z,55.44
2023-05-09T16:17:56.745Z,55.78
2023-05-09T16:20:23.168Z,56.64
2023-05-09T16:22:49.491Z,57.28
2023-05-09T16:25:16.527Z,56.28
2023-05-09T16:27:42.893Z,57.28
2023-05-09T16:30:09.691Z,56.26
2023-05-09T16:32:36.006Z,57.21
2023-05-09T16:35:02.307Z,56.98
2023-05-09T16:37:28.611Z,57.31
2023-05-09T16:39:55.143Z,57.30
2023-05-09T16:42:21.462Z,57.56
2023-05-09T16:44:47.945Z,57.13
2023-05-09T16:47:14.322Z,58.03
2023-05-09T16:49:40.617Z,58.00
2023-05-09T16:52:06.984Z,57.70
2023-05-09T16:54:33.276Z,58.42
2023-05-09T16:56:59.594Z,58.67
2023-05-09T16:59:25.949Z,59.88
2023-05-09T17:01:52.248Z,60.67
2023-05-09T17:04:18.561Z,61.29
2023-05-09T17:06:44.958Z,62.37
2023-05-09T17:09:11.255Z,63.31
2023-05-09T17:11:37.542Z,63.78
2023-05-09T17:14:03.848Z,64.24
2023-05-09T17:16:30.195Z,65.09
2023-05-09T17:18:56.518Z,65.17
2023-05-09T17:21:22.809Z,65.88
2023-05-09T17:23:49.198Z,65.79
2023-05-09T17:26:15.500Z,66.12
2023-05-09T17:28:41.828Z,66.70
2023-05-09T17:31:08.125Z,66.19
2023-05-09T17:33:34.480Z,66.55
2023-05-09T17:36:00.857Z,66.62
2023-05-09T17:38:27.163Z,67.37
2023-05-09T17:40:53.485Z,67.44
2023-05-09T17:43:19.804Z,68.82
2023-05-09T17:45:46.157Z,68.28
2023-05-09T17:48:12.474Z,69.13
2023-05-09T17:50:38.822Z,68.44
2023-05-09T17:53:05.129Z,67.35
2023-05-09T17:55:31.431Z,67.83
2023-05-09T17:57:57.726Z,68.47
2023-05-09T18:00:24.089Z,68.93
2023-05-09T18:02:50.444Z,69.43
2023-05-09T18:05:16.850Z,70.01
2023-05-09T18:07:43.139Z,70.80
2023-05-09T18:10:09.961Z,71.50
2023-05-09T18:12:37.173Z,72.20
2023-05-09T18:15:04.144Z,72.95
2023-05-09T18:17:30.462Z,73.52
2023-05-09T18:19:56.807Z,74.04
2023-05-09T18:22:23.135Z,74.92
2023-05-09T18:24:49.538Z,75.65
2023-05-09T18:27:16.518Z,76.24
2023-05-09T18:29:42.799Z,77.05
2023-05-09T18:32:09.103Z,77.35
2023-05-09T18:34:35.404Z,78.72
2023-05-09T18:37:01.697Z,79.04
2023-05-09T18:39:27.994Z,78.90
2023-05-09T18:41:54.337Z,79.14
2023-05-09T18:44:20.639Z,79.78
2023-05-09T18:46:47.025Z,80.10
2023-05-09T18:49:13.355Z,81.19
2023-05-09T18:51:39.706Z,80.95
2023-05-09T18:54:06.025Z,80.63
2023-05-09T18:56:32.379Z,80.99
2023-05-09T18:58:58.658Z,81.84
2023-05-09T19:01:25.050Z,81.66
2023-05-09T19:03:51.642Z,81.41
2023-05-09T19:06:17.959Z,81.71
2023-05-09T19:08:44.336Z,82.18
2023-05-09T19:11:10.653Z,82.35
2023-05-09T19:13:38.118Z,83.61
2023-05-09T19:16:05.532Z,85.06
2023-05-09T19:18:31.876Z,86.27
2023-05-09T19:20:58.810Z,86.26
2023-05-09T19:23:25.935Z,85.53
2023-05-09T19:25:52.960Z,85.06
2023-05-09T19:28:20.282Z,84.62
2023-05-09T19:30:46.733Z,84.39
2023-05-09T19:33:13.065Z,84.13
2023-05-09T19:35:41.265Z,83.03
2023-05-09T19:38:07.733Z,82.60
2023-05-09T19:40:34.372Z,82.34
2023-05-09T19:43:00.661Z,81.99
2023-05-09T19:45:26.973Z,82.50
2023-05-09T19:47:53.320Z,82.03
2023-05-09T19:50:19.764Z,82.61
2023-05-09T19:52:46.273Z,82.81
2023-05-09T19:55:12.784Z,82.91
2023-05-09T19:57:39.623Z,83.21
2023-05-09T20:00:08.525Z,84.17
2023-05-09T20:02:34.967Z,84.48
2023-05-09T20:05:01.339Z,84.79
2023-05-09T20:07:27.795Z,84.95
2023-05-09T20:09:54.112Z,85.36
2023-05-09T20:12:20.415Z,85.78
2023-05-09T20:14:46.736Z,86.08
2023-05-09T20:17:13.032Z,86.33
2023-05-09T20:19:39.410Z,86.92
2023-05-09T20:22:05.727Z,86.90
2023-05-09T20:24:32.064Z,87.81
2023-05-09T20:26:58.473Z,87.81
2023-05-09T20:29:25.407Z,88.91
2023-05-09T20:31:51.775Z,89.52
2023-05-09T20:34:18.110Z,89.55
2023-05-09T20:36:47.307Z,89.67
2023-05-09T20:39:13.612Z,89.52
2023-05-09T20:41:39.926Z,88.60
2023-05-09T20:44:06.238Z,88.37
2023-05-09T20:46:32.706Z,87.95
2023-05-09T20:48:59.004Z,88.24
2023-05-09T20:51:25.368Z,90.00
2023-05-09T20:53:51.681Z,90.47
2023-05-09T20:56:18.000Z,89.53
2023-05-09T20:58:44.318Z,88.59
2023-05-09T21:01:10.659Z,87.88
2023-05-09T21:03:37.003Z,87.69
2023-05-09T21:06:03.542Z,87.58
2023-05-09T21:08:29.867Z,89.40
2023-05-09T21:10:56.178Z,91.30
2023-05-09T21:13:22.701Z,92.28
2023-05-09T21:15:49.711Z,92.67
2023-05-09T21:18:16.486Z,91.89
2023-05-09T21:20:42.797Z,92.37
2023-05-09T21:23:09.120Z,93.39
2023-05-09T21:25:35.421Z,93.27
2023-05-09T21:28:01.762Z,93.32
2023-05-09T21:30:28.116Z,93.06
2023-05-09T21:32:54.490Z,93.34
2023-05-09T21:35:20.905Z,94.07
2023-05-09T21:37:47.202Z,94.17
2023-05-09T21:40:13.876Z,93.63
2023-05-09T21:42:40.410Z,93.28
2023-05-09T21:45:09.503Z,93.34
2023-05-09T21:47:36.593Z,93.50
2023-05-09T21:50:03.133Z,93.95
2023-05-09T21:52:29.933Z,94.46
2023-05-09T21:54:56.238Z,94.59
2023-05-09T21:57:22.560Z,94.62
2023-05-09T21:59:48.857Z,94.86
2023-05-09T22:02:15.353Z,95.03
2023-05-09T22:04:41.723Z,95.12
2023-05-09T22:07:08.050Z,94.94
2023-05-09T22:09:34.717Z,94.93
2023-05-09T22:12:01.077Z,95.23
2023-05-09T22:14:27.384Z,95.22
2023-05-09T22:16:53.684Z,95.69
2023-05-09T22:19:20.037Z,95.98
2023-05-09T22:21:46.424Z,96.41
2023-05-09T22:24:12.752Z,96.48
2023-05-09T22:26:39.062Z,96.18
2023-05-09T22:29:05.379Z,95.75
2023-05-09T22:31:31.734Z,95.08
2023-05-09T22:33:58.050Z,94.70
2023-05-09T22:36:24.828Z,94.47
2023-05-09T22:38:51.132Z,94.34
2023-05-09T22:41:17.452Z,94.20
2023-05-09T22:43:43.752Z,94.20
2023-05-09T22:46:10.112Z,94.25
2023-05-09T22:48:36.448Z,94.27
2023-05-09T22:51:02.826Z,94.41
2023-05-09T22:53:29.134Z,94.49
2023-05-09T22:55:55.438Z,94.79
2023-05-09T22:58:21.822Z,95.73
2023-05-09T23:00:48.136Z,95.92
2023-05-09T23:03:14.524Z,95.54
2023-05-09T23:05:40.942Z,95.43
2023-05-09T23:08:07.293Z,95.48
2023-05-09T23:10:33.593Z,95.37
2023-05-09T23:12:59.990Z,95.95
2023-05-09T23:15:26.482Z,96.67
2023-05-09T23:17:52.904Z,97.31
2023-05-09T23:20:19.595Z,97.62
2023-05-09T23:22:45.956Z,97.96
2023-05-09T23:25:12.272Z,98.38
2023-05-09T23:27:38.644Z,98.96
2023-05-09T23:30:05.574Z,99.86
2023-05-09T23:32:31.889Z,100.00
2023-05-09T23:34:58.224Z,100.00
2023-05-09T23:37:24.509Z,100.00
2023-05-09T23:39:50.804Z,100.00
2023-05-09T23:42:17.101Z,100.00
2023-05-09T23:44:43.405Z,100.00
2023-05-09T23:47:09.697Z,100.00
2023-05-09T23:49:35.997Z,100.00
2023-05-09T23:52:02.340Z,100.00
2023-05-09T23:54:28.708Z,100.00
2023-05-09T23:56:55.012Z,100.00
2023-05-09T23:59:21.308Z,100.00
